To NAV CANADA Home Page Login to a new session Search on AWWS site Feedback and Comments Disclaimer Vers la page française équivalente Tips FAQ What's new on the site To the Forecasts and Observations / NOTAM section To "File a Flight Plan" website Publications and other links Update of the User's profile FIC Telephone Numbers My Weather Data Folder Route Weather Data Regional Weather Data Local Weather Data To the Forecasts and Observations / NOTAM section
Request Generated 09/26/2016 at 20:42:01 UTC . Weather information available at that time is displayed.

METAR/TAF

KITCHENER/WATERLOO/ON    (show WxCam)

SPECI CYKF 262035Z AUTO 25008G15KT 9SM BKN030 BKN036 OVC043 14/12
A2985 RMK SLP112 DENSITY ALT 1200FT=
SPECI CYKF 262009Z AUTO 27017G26KT 7SM -RA FEW013 SCT018 BKN026
OVC039 14/12 A2985 RMK SLP112 DENSITY ALT 1200FT=
SPECI CYKF 262001Z AUTO 26017G22KT 6SM -RA SCT011 BKN018 BKN024
OVC042 15/12 A2984 RMK SLP108 DENSITY ALT 1300FT=
METAR CYKF 262000Z AUTO 26016G22KT 5SM -RA BR SCT011 BKN018 BKN024
OVC031 15/13 A2984 RMK SLP108 DENSITY ALT 1300FT=
SPECI CYKF 261949Z AUTO 24007KT 210V270 5SM -RA BR FEW013 BKN018
BKN024 OVC045 16/15 A2983 RMK SLP105 DENSITY ALT 1500FT=
SPECI CYKF 261939Z AUTO 21006KT 9SM -RA FEW016 BKN020 BKN032 OVC044
16/15 A2984 RMK SLP106 DENSITY ALT 1500FT=
SPECI CYKF 261936Z AUTO 21008KT 9SM -RA SCT020 BKN025 BKN032 OVC044
16/15 A2984 RMK SLP106 DENSITY ALT 1500FT=
SPECI CYKF 261929Z AUTO 19009KT 9SM -RA BKN022 BKN032 BKN042 OVC050
16/14 A2984 RMK SLP106 DENSITY ALT 1500FT=
SPECI CYKF 261925Z AUTO 20008KT 9SM -RA SCT022 BKN032 BKN044 OVC130
17/15 A2984 RMK SLP108 DENSITY ALT 1500FT=
METAR CYKF 261900Z AUTO 22011KT 9SM BKN130 17/14 A2985 RMK PRESRR
SLP110 DENSITY ALT 1500FT=
SPECI CYKF 261848Z AUTO 22008KT 8SM SCT034 BKN120 17/15 A2983 RMK
SLP103 DENSITY ALT 1600FT=
SPECI CYKF 261835Z AUTO 23007KT 9SM -RA FEW014 SCT022 BKN035 OVC120
17/15 A2983 RMK SLP103 DENSITY ALT 1600FT=
SPECI CYKF 261834Z AUTO 23007KT 9SM FEW016 BKN029 BKN037 OVC120 17/15
A2983 RMK SLP103 DENSITY ALT 1600FT=
SPECI CYKF 261829Z AUTO 23010KT 9SM -RA FEW014 SCT024 OVC033 17/15
A2983 RMK SLP103 DENSITY ALT 1600FT=
SPECI CYKF 261828Z AUTO 23008KT 9SM -RA FEW014 BKN024 OVC033 17/15
A2983 RMK SLP102 DENSITY ALT 1600FT=
SPECI CYKF 261825Z AUTO 24009KT 9SM -RA SCT012 SCT020 BKN026 OVC031
17/15 A2983 RMK SLP103 DENSITY ALT 1600FT=
SPECI CYKF 261820Z AUTO 23010KT 9SM -RA FEW009 SCT014 BKN020 OVC028
17/15 A2983 RMK SLP105 DENSITY ALT 1600FT=
SPECI CYKF 261803Z AUTO 22008KT 9SM BKN008 BKN018 BKN026 17/16 A2984
RMK SLP107 DENSITY ALT 1600FT=
SPECI CYKF 261804Z AUTO 22009KT 9SM SCT008 BKN014 BKN026 17/16 A2984
RMK SLP106 DENSITY ALT 1600FT=
METAR CYKF 261800Z AUTO 22007KT 9SM -RA BKN008 BKN020 17/16 A2984 RMK
SLP107 DENSITY ALT 1600FT=
SPECI CYKF 261759Z AUTO 22006KT 9SM -RA BKN006 BKN012 17/16 A2984 RMK
SLP107 DENSITY ALT 1600FT=

TAF AMD CYKF 262007Z 2620/2704 24014G24KT P6SM SCT015 BKN120 TEMPO
2620/2621 5SM -SHRA BR SCT009 BKN015 BKN120
FM262100 24014G24KT P6SM SCT020 BKN050 TEMPO 2621/2623 BKN020
FM262300 23014KT P6SM SCT030
BECMG 2701/2703 23010KT
RMK FCST BASED ON AUTO OBS. NXT FCST BY 270200Z=
Your time UTC time
Weather data provided by Environment Canada and NAV CANADA